Time;durP1;ratioP1;P1;durP2;ratioP2;P2;SDS_P1;SDS_P2;PMS_P1;PMS_P2;Temp;Humidity;BMP_temperature;BMP_pressure;BME280_temperature;BME280_humidity;BME280_pressure;Samples;Min_cycle;Max_cycle;Signal;HPM_P1;HPM_P2
2023/08/13 00:01:43;;;;;;;7.82;3.90;;;16.00;99.90;;;;;;5053612;28;20071;-82
2023/08/13 00:04:09;;;;;;;10.70;3.97;;;16.00;99.90;;;;;;5063420;28;20166;-82
2023/08/13 00:06:35;;;;;;;9.35;4.03;;;16.00;99.90;;;;;;5019489;28;20037;-82
2023/08/13 00:09:00;;;;;;;10.75;3.78;;;16.00;99.90;;;;;;5036215;28;20443;-82
2023/08/13 00:11:26;;;;;;;10.15;4.00;;;16.00;99.90;;;;;;5015338;28;20385;-82
2023/08/13 00:13:52;;;;;;;10.07;3.65;;;16.00;99.90;;;;;;5018682;28;20037;-82
2023/08/13 00:16:17;;;;;;;9.90;3.80;;;16.00;99.90;;;;;;5041105;28;20044;-82
2023/08/13 00:18:43;;;;;;;8.32;3.88;;;16.00;99.90;;;;;;5037229;28;20040;-82
2023/08/13 00:21:09;;;;;;;10.20;4.28;;;16.00;99.90;;;;;;5015863;28;20076;-83
2023/08/13 00:23:34;;;;;;;9.50;3.80;;;16.00;99.90;;;;;;5015515;28;20059;-82
2023/08/13 00:26:00;;;;;;;8.63;3.67;;;16.00;99.90;;;;;;5052376;28;20041;-82
2023/08/13 00:28:26;;;;;;;9.00;3.35;;;16.00;99.90;;;;;;5058289;28;20064;-82
2023/08/13 00:30:53;;;;;;;10.70;4.32;;;16.00;99.90;;;;;;5040016;28;20179;-82
2023/08/13 00:33:19;;;;;;;9.00;3.58;;;16.10;99.90;;;;;;5051693;28;20037;-82
2023/08/13 00:35:44;;;;;;;12.27;4.28;;;16.10;99.90;;;;;;5018252;28;20358;-82
2023/08/13 00:38:10;;;;;;;10.00;4.38;;;16.10;99.90;;;;;;5050396;28;20041;-82
2023/08/13 00:40:36;;;;;;;10.70;3.72;;;16.20;99.90;;;;;;5033267;28;20055;-82
2023/08/13 00:43:02;;;;;;;9.13;3.75;;;16.20;99.90;;;;;;5045377;28;20683;-82
2023/08/13 00:45:30;;;;;;;9.98;3.72;;;16.30;99.90;;;;;;5054775;28;20392;-83
2023/08/13 00:47:56;;;;;;;8.38;3.42;;;16.30;99.90;;;;;;5035016;28;20044;-82
2023/08/13 00:50:22;;;;;;;9.43;4.03;;;16.30;99.90;;;;;;5018408;28;20033;-82
2023/08/13 00:52:48;;;;;;;8.98;3.85;;;16.30;99.90;;;;;;5035293;28;20060;-83
2023/08/13 00:55:14;;;;;;;7.07;3.63;;;16.40;99.90;;;;;;5018081;28;20040;-82
2023/08/13 00:57:40;;;;;;;9.35;3.78;;;16.40;99.90;;;;;;5036336;28;20044;-82
2023/08/13 01:00:08;;;;;;;11.02;3.55;;;16.40;99.90;;;;;;5033254;28;20033;-82
2023/08/13 01:02:34;;;;;;;11.65;4.10;;;16.40;99.90;;;;;;5034342;28;20040;-82
2023/08/13 01:05:00;;;;;;;13.23;4.00;;;16.50;99.90;;;;;;5003495;28;20115;-82
2023/08/13 01:07:51;;;;;;;9.07;3.67;;;16.50;99.90;;;;;;5017777;28;20088;-83
2023/08/13 01:10:36;;;;;;;10.35;3.90;;;16.50;99.90;;;;;;5034548;28;20094;-82
2023/08/13 01:13:17;;;;;;;8.95;3.38;;;16.50;99.90;;;;;;5015876;28;20184;-83
2023/08/13 01:15:44;;;;;;;11.88;3.88;;;16.50;99.90;;;;;;5034026;28;20033;-82
2023/08/13 01:18:11;;;;;;;12.43;3.90;;;16.50;99.90;;;;;;5017993;28;20029;-82
2023/08/13 01:20:39;;;;;;;11.80;3.75;;;16.50;99.90;;;;;;5049198;28;20416;-82
2023/08/13 01:23:05;;;;;;;12.32;4.10;;;16.50;99.90;;;;;;5035134;28;20037;-81
2023/08/13 01:25:32;;;;;;;9.15;3.70;;;16.50;99.90;;;;;;5035402;28;20130;-82
2023/08/13 01:28:06;;;;;;;12.77;4.00;;;16.50;99.90;;;;;;5017503;28;20072;-81
2023/08/13 01:30:49;;;;;;;8.93;4.15;;;16.40;99.90;;;;;;5048143;28;20126;-81
2023/08/13 01:33:20;;;;;;;10.85;4.07;;;16.40;99.90;;;;;;5045876;28;20380;-82
2023/08/13 01:35:47;;;;;;;9.90;4.50;;;16.40;99.90;;;;;;5034823;28;20384;-82
2023/08/13 01:38:13;;;;;;;7.80;3.53;;;16.40;99.90;;;;;;5051402;28;20153;-82
2023/08/13 01:40:39;;;;;;;12.73;3.88;;;16.30;99.90;;;;;;5043670;28;20091;-81
2023/08/13 01:43:05;;;;;;;7.88;3.63;;;16.30;99.90;;;;;;5017425;28;20025;-82
2023/08/13 01:45:31;;;;;;;11.80;4.28;;;16.20;99.90;;;;;;5050379;28;20068;-81
2023/08/13 01:47:56;;;;;;;8.63;3.70;;;16.20;99.90;;;;;;5033725;28;20033;-82
2023/08/13 01:50:23;;;;;;;10.90;4.22;;;16.20;99.90;;;;;;5014920;28;20091;-81
2023/08/13 01:52:49;;;;;;;12.63;3.47;;;16.20;99.90;;;;;;5033917;28;20091;-82
2023/08/13 01:55:15;;;;;;;7.97;3.67;;;16.20;99.90;;;;;;5034877;28;20069;-82
2023/08/13 01:57:40;;;;;;;12.00;3.90;;;16.20;99.90;;;;;;5014749;28;20037;-82
2023/08/13 02:00:07;;;;;;;13.00;4.25;;;16.10;99.90;;;;;;5028392;28;20040;-82
2023/08/13 02:02:36;;;;;;;12.15;4.35;;;16.10;99.90;;;;;;5035304;28;20464;-82
2023/08/13 02:05:02;;;;;;;11.25;4.05;;;16.10;99.90;;;;;;5053991;28;20041;-81
2023/08/13 02:07:28;;;;;;;10.50;4.18;;;16.20;99.90;;;;;;5023330;28;20083;-82
2023/08/13 02:09:53;;;;;;;13.77;3.40;;;16.10;99.90;;;;;;5015553;28;20619;-81
2023/08/13 02:12:19;;;;;;;10.32;4.18;;;16.20;99.90;;;;;;5050466;28;20080;-82
2023/08/13 02:14:45;;;;;;;9.70;3.97;;;16.20;99.90;;;;;;5058009;28;20033;-82
2023/08/13 02:17:12;;;;;;;15.82;4.75;;;16.20;99.90;;;;;;5042892;28;20041;-82
2023/08/13 02:19:40;;;;;;;10.18;3.80;;;16.20;99.90;;;;;;5033173;28;20049;-82
2023/08/13 02:22:06;;;;;;;12.23;4.18;;;16.10;99.90;;;;;;5051226;28;20045;-82
2023/08/13 02:24:32;;;;;;;11.77;4.07;;;16.10;99.90;;;;;;5049328;28;20069;-82
2023/08/13 02:26:57;;;;;;;8.48;4.07;;;16.10;99.90;;;;;;5025895;28;20065;-82
2023/08/13 02:29:23;;;;;;;9.98;4.13;;;16.10;99.90;;;;;;4999525;28;20144;-81
2023/08/13 02:31:49;;;;;;;13.43;4.78;;;16.10;99.90;;;;;;5032388;28;20039;-82
2023/08/13 02:34:14;;;;;;;9.88;3.60;;;16.10;99.90;;;;;;5033075;28;20037;-82
2023/08/13 02:36:40;;;;;;;12.95;4.60;;;16.10;99.90;;;;;;5032876;28;20041;-82
2023/08/13 02:39:06;;;;;;;9.70;4.32;;;16.00;99.90;;;;;;5036301;28;20044;-82
2023/08/13 02:41:32;;;;;;;10.15;3.90;;;16.00;99.90;;;;;;5034418;28;20594;-81
2023/08/13 02:43:57;;;;;;;12.82;4.57;;;15.90;99.90;;;;;;5016514;28;20123;-81
2023/08/13 02:46:25;;;;;;;9.82;4.40;;;15.90;99.90;;;;;;5036831;28;20385;-81
2023/08/13 02:48:55;;;;;;;11.80;4.22;;;15.90;99.90;;;;;;5034258;28;20036;-81
2023/08/13 02:51:22;;;;;;;13.48;4.57;;;15.90;99.90;;;;;;5032963;28;20060;-82
2023/08/13 02:53:48;;;;;;;9.35;4.13;;;15.80;99.90;;;;;;5033126;28;20123;-82
2023/08/13 02:56:14;;;;;;;10.50;4.50;;;15.80;99.90;;;;;;5045094;28;20563;-82
2023/08/13 02:58:39;;;;;;;9.55;4.75;;;15.80;99.90;;;;;;5049888;28;20123;-82
2023/08/13 03:01:05;;;;;;;10.52;4.90;;;15.80;99.90;;;;;;5033344;28;20068;-81
2023/08/13 03:03:31;;;;;;;14.38;5.03;;;15.70;99.90;;;;;;5017609;28;20820;-82
2023/08/13 03:05:57;;;;;;;12.18;4.82;;;15.70;99.90;;;;;;5049826;28;20037;-81
2023/08/13 03:08:23;;;;;;;9.13;5.07;;;15.70;99.90;;;;;;5052565;28;20043;-82
2023/08/13 03:10:50;;;;;;;16.65;4.85;;;15.60;99.90;;;;;;5031058;28;20044;-81
2023/08/13 03:13:15;;;;;;;10.98;4.97;;;15.60;99.90;;;;;;5006874;28;20808;-82
2023/08/13 03:15:41;;;;;;;9.75;4.57;;;15.60;99.90;;;;;;5036263;28;20396;-82
2023/08/13 03:18:07;;;;;;;14.25;4.97;;;15.60;99.90;;;;;;5036389;28;20047;-82
2023/08/13 03:20:33;;;;;;;15.85;5.18;;;15.60;99.90;;;;;;5036000;28;20037;-82
2023/08/13 03:22:59;;;;;;;11.65;4.78;;;15.60;99.90;;;;;;5036341;28;20037;-82
2023/08/13 03:25:25;;;;;;;10.13;4.80;;;15.60;99.90;;;;;;5041408;28;20039;-82
2023/08/13 03:27:51;;;;;;;14.43;5.30;;;15.60;99.90;;;;;;5037370;28;20125;-82
2023/08/13 03:30:17;;;;;;;15.18;5.68;;;15.50;99.90;;;;;;5061974;28;20455;-82
2023/08/13 03:32:43;;;;;;;9.20;5.22;;;15.60;99.90;;;;;;5043316;28;20037;-82
2023/08/13 03:35:09;;;;;;;10.05;4.72;;;15.50;99.90;;;;;;5038652;28;20484;-81
2023/08/13 03:37:34;;;;;;;13.65;5.53;;;15.50;99.90;;;;;;5028404;28;20041;-81
2023/08/13 03:40:00;;;;;;;9.32;4.95;;;15.50;99.90;;;;;;5037526;28;20049;-82
2023/08/13 03:42:26;;;;;;;11.10;5.10;;;15.50;99.90;;;;;;5056834;28;20064;-82
2023/08/13 03:44:51;;;;;;;11.55;5.30;;;15.50;99.90;;;;;;5041317;28;20040;-82
2023/08/13 03:47:17;;;;;;;10.57;5.00;;;15.50;99.90;;;;;;5023646;28;20029;-82
2023/08/13 03:49:43;;;;;;;8.82;4.88;;;15.50;99.90;;;;;;5040744;28;20045;-81
2023/08/13 03:52:11;;;;;;;14.82;5.40;;;15.40;99.90;;;;;;5038692;28;20495;-82
2023/08/13 03:54:37;;;;;;;11.30;5.10;;;15.50;99.90;;;;;;5058543;28;20086;-82
2023/08/13 03:57:03;;;;;;;9.45;4.65;;;15.40;99.90;;;;;;5060892;28;20048;-82
2023/08/13 03:59:29;;;;;;;12.02;5.20;;;15.50;99.90;;;;;;5002948;28;20045;-82
2023/08/13 04:01:57;;;;;;;12.57;5.00;;;15.40;99.90;;;;;;5069189;28;20093;-82
2023/08/13 04:04:23;;;;;;;11.45;5.35;;;15.40;99.90;;;;;;5025117;28;20044;-83
2023/08/13 04:06:49;;;;;;;15.63;5.95;;;15.40;99.90;;;;;;5041007;28;20048;-82
2023/08/13 04:09:14;;;;;;;11.25;4.72;;;15.40;99.90;;;;;;5011192;28;20041;-81
2023/08/13 04:11:40;;;;;;;12.15;5.30;;;15.40;99.90;;;;;;5055156;28;20115;-82
2023/08/13 04:14:06;;;;;;;11.43;4.65;;;15.40;99.90;;;;;;5034941;28;20032;-82
2023/08/13 04:16:31;;;;;;;10.68;4.82;;;15.40;99.90;;;;;;5034249;28;20036;-82
2023/08/13 04:18:57;;;;;;;13.57;5.22;;;15.40;99.90;;;;;;5008266;28;20038;-82
2023/08/13 04:21:26;;;;;;;9.60;4.63;;;15.40;99.90;;;;;;5066399;28;20452;-82
2023/08/13 04:23:56;;;;;;;15.15;4.70;;;15.40;99.90;;;;;;5038253;28;20112;-82
2023/08/13 04:26:22;;;;;;;11.55;4.53;;;15.40;99.90;;;;;;5035052;28;20048;-84
2023/08/13 04:28:48;;;;;;;10.93;4.85;;;15.40;99.90;;;;;;5015767;28;20124;-83
2023/08/13 04:31:15;;;;;;;12.95;5.13;;;15.40;99.90;;;;;;5039493;28;20177;-83
2023/08/13 04:33:41;;;;;;;13.60;4.80;;;15.40;99.90;;;;;;5038404;28;20448;-83
2023/08/13 04:36:07;;;;;;;11.32;4.78;;;15.40;99.90;;;;;;5044295;28;20083;-84
2023/08/13 04:38:32;;;;;;;10.10;4.47;;;15.40;99.90;;;;;;5035610;28;20049;-83
2023/08/13 04:41:00;;;;;;;10.65;4.93;;;15.40;99.90;;;;;;5035224;28;20045;-83
2023/08/13 04:43:25;;;;;;;13.25;5.32;;;15.40;99.90;;;;;;5037572;28;20045;-84
2023/08/13 04:45:51;;;;;;;10.27;4.50;;;15.40;99.90;;;;;;5037454;28;20369;-84
2023/08/13 04:48:38;;;;;;;15.25;4.75;;;15.40;99.90;;;;;;5019179;28;20037;-83
2023/08/13 04:51:04;;;;;;;12.40;4.88;;;15.40;99.90;;;;;;5063457;28;20044;-83
2023/08/13 04:53:29;;;;;;;13.10;4.90;;;15.50;99.90;;;;;;5022340;28;20060;-83
2023/08/13 04:55:55;;;;;;;9.18;4.88;;;15.50;99.90;;;;;;5036578;28;20404;-83
2023/08/13 04:58:21;;;;;;;12.75;4.80;;;15.50;99.90;;;;;;5040058;28;20036;-83
2023/08/13 05:00:47;;;;;;;11.10;5.60;;;15.60;99.90;;;;;;5055775;28;20040;-83
2023/08/13 05:03:12;;;;;;;11.95;4.82;;;15.60;99.90;;;;;;5030835;28;20814;-82
2023/08/13 05:05:38;;;;;;;13.63;4.43;;;15.60;99.90;;;;;;5038988;28;20069;-83
2023/08/13 05:08:04;;;;;;;13.70;5.18;;;15.70;99.90;;;;;;5051501;28;20439;-84
2023/08/13 05:10:29;;;;;;;8.82;4.63;;;15.70;99.90;;;;;;5034971;28;20048;-83
2023/08/13 05:12:55;;;;;;;12.38;5.40;;;15.70;99.90;;;;;;5040226;28;20394;-83
2023/08/13 05:15:21;;;;;;;9.18;4.90;;;15.70;99.90;;;;;;5018141;28;20289;-83
2023/08/13 05:17:46;;;;;;;13.00;5.53;;;15.80;99.90;;;;;;5034667;28;20483;-83
2023/08/13 05:20:12;;;;;;;10.57;5.03;;;15.80;99.90;;;;;;5050694;28;20041;-83
2023/08/13 05:22:38;;;;;;;9.60;4.43;;;15.80;99.90;;;;;;5042321;28;20101;-83
2023/08/13 05:25:04;;;;;;;14.93;5.65;;;15.80;99.90;;;;;;5066978;28;20066;-83
2023/08/13 05:27:30;;;;;;;15.73;5.32;;;15.80;99.90;;;;;;5050236;28;20048;-83
2023/08/13 05:29:55;;;;;;;12.70;5.15;;;15.80;99.90;;;;;;5034297;28;20044;-82
2023/08/13 05:32:22;;;;;;;11.30;5.07;;;15.80;99.90;;;;;;5021330;28;20033;-82
2023/08/13 05:34:48;;;;;;;13.77;5.43;;;15.80;99.90;;;;;;5034565;28;20468;-83
2023/08/13 05:37:14;;;;;;;13.40;5.03;;;15.80;99.90;;;;;;5054364;28;20051;-83
2023/08/13 05:39:39;;;;;;;12.02;4.88;;;15.90;99.90;;;;;;5042447;28;20041;-83
2023/08/13 05:42:05;;;;;;;10.00;4.95;;;16.00;99.90;;;;;;5033943;28;20064;-84
2023/08/13 05:44:31;;;;;;;11.27;5.38;;;16.00;99.90;;;;;;5056647;28;20048;-82
2023/08/13 05:46:57;;;;;;;9.50;5.20;;;16.10;99.90;;;;;;5054203;28;20403;-83
2023/08/13 05:49:23;;;;;;;11.90;5.30;;;16.20;99.90;;;;;;5029906;28;20035;-82
2023/08/13 05:51:49;;;;;;;10.40;5.50;;;16.20;99.90;;;;;;5050698;28;20049;-83
2023/08/13 05:54:15;;;;;;;10.77;5.10;;;16.30;99.90;;;;;;5017106;28;20049;-82
2023/08/13 05:56:41;;;;;;;16.73;5.72;;;16.40;99.90;;;;;;5028618;28;20033;-82
2023/08/13 05:59:07;;;;;;;11.55;5.03;;;16.40;99.90;;;;;;5033694;28;20102;-82
2023/08/13 06:01:33;;;;;;;11.82;5.32;;;16.40;99.90;;;;;;5050262;28;20040;-82
2023/08/13 06:03:59;;;;;;;12.98;5.15;;;16.40;99.90;;;;;;5017585;28;20416;-81
2023/08/13 06:06:25;;;;;;;12.15;5.15;;;16.40;99.90;;;;;;5033700;28;20433;-82
2023/08/13 06:08:50;;;;;;;13.57;5.30;;;16.30;99.90;;;;;;5013881;28;20076;-82
2023/08/13 06:11:16;;;;;;;13.05;5.72;;;16.30;99.90;;;;;;5016455;28;20064;-82
2023/08/13 06:13:42;;;;;;;12.10;5.50;;;16.20;99.90;;;;;;5036891;28;20032;-82
2023/08/13 06:16:08;;;;;;;13.85;5.53;;;16.20;99.90;;;;;;5032911;28;20052;-82
2023/08/13 06:18:37;;;;;;;19.83;6.40;;;16.30;99.90;;;;;;5049053;28;20101;-82
2023/08/13 06:21:03;;;;;;;14.13;5.80;;;16.40;99.90;;;;;;5030512;28;20042;-82
2023/08/13 06:23:30;;;;;;;13.57;5.70;;;16.50;99.90;;;;;;5034308;28;20716;-82
2023/08/13 06:25:56;;;;;;;16.20;5.82;;;16.60;99.90;;;;;;5043263;28;20095;-82
2023/08/13 06:28:22;;;;;;;10.40;5.03;;;16.70;99.90;;;;;;5021001;28;20029;-81
2023/08/13 06:30:48;;;;;;;12.07;5.97;;;16.80;99.90;;;;;;5033357;28;20033;-82
2023/08/13 06:33:14;;;;;;;12.90;5.75;;;16.80;99.90;;;;;;5033918;28;20120;-82
2023/08/13 06:35:46;;;;;;;10.05;5.65;;;16.90;99.90;;;;;;5040237;28;20574;-82
2023/08/13 06:38:13;;;;;;;12.60;5.72;;;17.00;99.90;;;;;;5040439;28;20084;-82
2023/08/13 06:40:39;;;;;;;11.27;5.72;;;17.10;99.90;;;;;;5050174;28;20102;-82
2023/08/13 06:43:04;;;;;;;12.80;5.72;;;17.20;99.90;;;;;;5033607;28;20037;-84
2023/08/13 06:45:30;;;;;;;11.73;5.15;;;17.30;99.90;;;;;;5023293;28;20044;-82
2023/08/13 06:47:59;;;;;;;12.43;5.30;;;17.30;99.90;;;;;;5071002;28;20090;-83
2023/08/13 06:50:26;;;;;;;13.05;6.15;;;17.50;99.90;;;;;;5036775;28;20079;-83
2023/08/13 06:52:53;;;;;;;12.30;5.47;;;17.60;99.90;;;;;;5053814;28;20506;-84
2023/08/13 06:55:19;;;;;;;19.67;5.93;;;17.70;99.90;;;;;;5055291;28;20554;-82
2023/08/13 06:57:46;;;;;;;11.15;6.20;;;17.70;99.90;;;;;;5009446;28;20088;-83
2023/08/13 07:00:13;;;;;;;14.55;6.15;;;17.70;99.90;;;;;;5047342;28;20041;-83
2023/08/13 07:02:39;;;;;;;12.05;5.57;;;17.70;99.90;;;;;;5027117;28;20163;-83
2023/08/13 07:05:05;;;;;;;10.40;5.30;;;17.70;99.90;;;;;;5053469;28;20055;-82
2023/08/13 07:07:33;;;;;;;12.30;6.03;;;17.70;99.90;;;;;;5038641;28;20123;-81
2023/08/13 07:09:59;;;;;;;15.32;6.03;;;17.60;99.90;;;;;;5020445;28;20519;-81
2023/08/13 07:12:25;;;;;;;13.25;5.70;;;17.70;99.90;;;;;;5036950;28;20419;-82
2023/08/13 07:14:51;;;;;;;13.45;5.82;;;17.70;99.90;;;;;;5026235;28;20116;-82
2023/08/13 07:17:16;;;;;;;16.92;5.60;;;17.80;99.90;;;;;;5018992;28;20039;-82
2023/08/13 07:19:42;;;;;;;13.25;5.63;;;17.90;99.90;;;;;;5036396;28;20106;-81
2023/08/13 07:22:08;;;;;;;13.48;5.30;;;18.00;99.90;;;;;;5039880;28;20033;-82
2023/08/13 07:24:34;;;;;;;12.85;5.85;;;18.20;99.90;;;;;;5042677;28;20069;-82
2023/08/13 07:27:00;;;;;;;12.98;5.72;;;18.40;99.90;;;;;;5036142;28;20045;-82
2023/08/13 07:29:25;;;;;;;11.68;5.15;;;18.40;99.90;;;;;;5035655;28;20512;-82
2023/08/13 07:31:51;;;;;;;9.98;5.28;;;18.50;99.90;;;;;;5042397;28;20041;-82
2023/08/13 07:34:17;;;;;;;13.48;5.55;;;18.60;99.90;;;;;;5052736;28;20037;-81
2023/08/13 07:36:42;;;;;;;16.85;5.45;;;18.70;99.90;;;;;;5050555;28;20058;-82
2023/08/13 07:39:09;;;;;;;11.02;5.00;;;18.80;99.90;;;;;;5042183;28;20128;-82
2023/08/13 07:41:36;;;;;;;9.27;5.60;;;19.00;99.90;;;;;;5040437;28;20127;-81
2023/08/13 07:44:02;;;;;;;15.32;4.88;;;19.00;99.90;;;;;;5053750;28;20045;-81
2023/08/13 07:46:27;;;;;;;9.80;5.20;;;19.10;99.90;;;;;;5035996;28;20123;-82
2023/08/13 07:48:53;;;;;;;11.05;5.65;;;19.20;99.90;;;;;;5008818;28;20115;-82
2023/08/13 07:51:20;;;;;;;10.50;5.43;;;19.30;99.90;;;;;;5021412;28;20090;-81
2023/08/13 07:53:45;;;;;;;11.15;5.07;;;19.40;99.90;;;;;;5019102;28;20049;-81
2023/08/13 07:56:11;;;;;;;10.18;5.45;;;19.40;99.90;;;;;;5010106;28;20046;-82
2023/08/13 07:58:38;;;;;;;11.45;4.88;;;19.40;99.90;;;;;;5058510;28;20056;-83
2023/08/13 08:01:04;;;;;;;9.57;4.85;;;19.50;99.90;;;;;;5043026;28;20431;-82
2023/08/13 08:03:30;;;;;;;8.43;4.38;;;19.50;99.90;;;;;;5039658;28;20044;-82
2023/08/13 08:05:55;;;;;;;12.50;4.88;;;19.60;99.90;;;;;;5019044;28;20072;-81
2023/08/13 08:08:21;;;;;;;6.93;3.90;;;19.60;99.90;;;;;;5035546;28;20482;-81
2023/08/13 08:10:47;;;;;;;10.98;4.10;;;19.70;99.90;;;;;;5062532;28;20044;-82
2023/08/13 08:13:13;;;;;;;11.55;3.90;;;19.80;99.90;;;;;;5039810;28;20044;-81
2023/08/13 08:15:38;;;;;;;11.27;3.63;;;19.90;99.90;;;;;;5053633;28;20040;-82
2023/08/13 08:18:04;;;;;;;9.27;3.03;;;20.00;99.90;;;;;;5035461;28;20503;-80
2023/08/13 08:20:30;;;;;;;7.65;3.35;;;20.10;99.90;;;;;;5018392;28;20455;-82
2023/08/13 08:22:56;;;;;;;9.00;3.60;;;20.20;99.90;;;;;;5034880;28;20051;-80
2023/08/13 08:25:21;;;;;;;6.20;3.10;;;20.30;99.90;;;;;;5040593;28;20121;-82
2023/08/13 08:27:47;;;;;;;8.80;3.30;;;20.50;99.90;;;;;;5019297;28;20040;-82
2023/08/13 08:30:13;;;;;;;7.60;3.53;;;20.50;99.90;;;;;;5018624;28;20040;-81
2023/08/13 08:32:39;;;;;;;6.63;3.30;;;20.50;99.90;;;;;;5037078;28;20051;-81
2023/08/13 08:35:05;;;;;;;9.60;3.40;;;20.50;99.90;;;;;;5004735;28;20040;-82
2023/08/13 08:37:32;;;;;;;6.47;3.08;;;20.50;99.90;;;;;;5035243;28;20520;-82
2023/08/13 08:39:59;;;;;;;9.18;3.30;;;20.50;99.90;;;;;;5055843;28;20117;-83
2023/08/13 08:42:26;;;;;;;7.45;3.00;;;20.50;99.90;;;;;;5034297;28;20032;-82
2023/08/13 08:44:52;;;;;;;7.82;3.25;;;20.50;99.90;;;;;;5051196;28;20107;-83
2023/08/13 08:47:20;;;;;;;6.43;3.17;;;20.60;99.90;;;;;;5051071;28;20049;-82
2023/08/13 08:49:48;;;;;;;10.60;3.30;;;20.70;99.90;;;;;;5037723;28;20090;-82
2023/08/13 08:52:16;;;;;;;7.35;3.30;;;20.70;99.90;;;;;;5059711;28;20106;-81
2023/08/13 08:54:43;;;;;;;10.45;3.33;;;20.70;99.90;;;;;;5057484;28;20496;-83
2023/08/13 08:57:09;;;;;;;12.43;3.33;;;20.70;99.90;;;;;;5018482;28;20120;-83
2023/08/13 08:59:35;;;;;;;6.75;2.90;;;20.80;99.90;;;;;;5051121;28;20116;-83
2023/08/13 09:02:02;;;;;;;6.70;3.33;;;20.90;99.90;;;;;;5044819;28;20048;-83
2023/08/13 09:04:28;;;;;;;15.50;4.03;;;20.90;99.90;;;;;;5026171;28;20040;-83
2023/08/13 09:07:00;;;;;;;7.10;2.80;;;20.90;99.90;;;;;;5061865;28;20049;-82
2023/08/13 09:09:27;;;;;;;9.15;3.15;;;21.00;99.90;;;;;;5015312;28;20033;-83
2023/08/13 09:11:53;;;;;;;8.15;3.13;;;21.10;99.90;;;;;;5048421;28;20040;-82
2023/08/13 09:14:20;;;;;;;8.95;3.38;;;21.10;99.90;;;;;;5050664;28;20621;-82
2023/08/13 09:16:50;;;;;;;7.95;3.15;;;21.10;99.90;;;;;;5050799;28;20040;-82
2023/08/13 09:19:17;;;;;;;7.18;3.40;;;21.20;99.90;;;;;;5034344;28;20045;-82
2023/08/13 09:21:50;;;;;;;8.18;3.17;;;21.30;99.90;;;;;;5043161;28;20044;-84
2023/08/13 09:24:16;;;;;;;10.00;3.50;;;21.40;99.90;;;;;;5041607;28;20039;-82
2023/08/13 09:26:42;;;;;;;5.28;2.85;;;21.50;99.90;;;;;;5053252;28;20510;-83
2023/08/13 09:29:08;;;;;;;5.22;3.00;;;21.70;99.90;;;;;;5051081;28;20040;-82
2023/08/13 09:31:36;;;;;;;5.45;2.92;;;21.80;99.90;;;;;;5039642;28;20083;-82
2023/08/13 09:34:02;;;;;;;5.85;3.38;;;21.80;99.90;;;;;;5050900;28;20086;-82
2023/08/13 09:36:29;;;;;;;4.50;2.72;;;21.90;99.90;;;;;;5034238;28;20080;-83
2023/08/13 09:38:56;;;;;;;6.93;3.10;;;21.80;99.90;;;;;;5033914;28;20041;-82
2023/08/13 09:41:22;;;;;;;7.05;3.50;;;21.90;99.90;;;;;;5033686;28;20037;-82
2023/08/13 09:43:50;;;;;;;8.07;3.30;;;21.90;99.90;;;;;;5044632;28;20053;-82
2023/08/13 09:46:19;;;;;;;7.43;2.95;;;21.80;99.90;;;;;;5034200;28;20090;-84
2023/08/13 09:48:46;;;;;;;5.68;2.60;;;21.80;99.90;;;;;;5034210;28;20037;-82
2023/08/13 09:51:13;;;;;;;7.50;2.80;;;21.80;99.90;;;;;;5017733;28;20032;-82
2023/08/13 09:53:43;;;;;;;6.13;2.67;;;21.80;99.90;;;;;;5014301;28;20049;-82
2023/08/13 09:56:10;;;;;;;5.90;2.80;;;21.70;99.90;;;;;;5037021;28;20048;-83
2023/08/13 09:58:37;;;;;;;4.82;2.72;;;21.80;99.90;;;;;;5030960;28;20373;-84
2023/08/13 10:01:03;;;;;;;6.13;2.30;;;21.70;99.90;;;;;;5034206;28;20471;-84
2023/08/13 10:03:30;;;;;;;8.30;2.60;;;21.60;99.90;;;;;;5033529;28;20536;-82
2023/08/13 10:05:57;;;;;;;6.47;2.63;;;21.50;99.90;;;;;;5013980;28;20048;-82
2023/08/13 10:08:23;;;;;;;4.38;2.47;;;21.40;99.90;;;;;;5044014;28;20358;-83
2023/08/13 10:10:49;;;;;;;5.80;2.50;;;21.40;99.90;;;;;;5050548;28;20107;-83
2023/08/13 10:13:15;;;;;;;6.45;2.60;;;21.50;99.90;;;;;;5050481;28;20093;-82
2023/08/13 10:15:42;;;;;;;6.97;2.80;;;21.60;99.90;;;;;;5035709;28;20041;-83
2023/08/13 10:18:09;;;;;;;6.25;2.58;;;21.60;99.90;;;;;;5034495;28;20055;-83
2023/08/13 10:20:35;;;;;;;7.82;2.55;;;21.60;99.90;;;;;;5035541;28;20087;-83
2023/08/13 10:23:03;;;;;;;5.55;2.20;;;21.70;99.90;;;;;;5021904;28;20420;-83
2023/08/13 10:25:32;;;;;;;6.18;2.33;;;21.70;99.90;;;;;;5040086;28;20135;-83
2023/08/13 10:27:58;;;;;;;6.72;2.85;;;21.60;99.90;;;;;;5061764;28;20102;-83
2023/08/13 10:30:24;;;;;;;5.35;2.22;;;21.60;99.90;;;;;;5038567;28;20041;-82
2023/08/13 10:33:00;;;;;;;6.32;2.30;;;21.60;99.90;;;;;;5057137;28;20033;-82
2023/08/13 10:35:38;;;;;;;6.30;2.22;;;21.60;99.90;;;;;;5058681;28;20033;-83
2023/08/13 10:38:06;;;;;;;4.90;2.03;;;21.60;99.90;;;;;;5053636;28;20045;-81
2023/08/13 10:40:31;;;;;;;5.28;2.05;;;21.60;99.90;;;;;;5037378;28;20124;-82
2023/08/13 10:43:03;;;;;;;3.70;2.03;;;21.70;99.90;;;;;;5037738;28;20131;-83
2023/08/13 10:45:35;;;;;;;4.60;1.90;;;21.70;99.90;;;;;;5062993;28;20089;-82
2023/08/13 10:48:03;;;;;;;3.20;2.03;;;21.70;99.90;;;;;;5040460;28;20400;-83
2023/08/13 10:50:36;;;;;;;4.20;1.88;;;21.60;99.90;;;;;;5037976;28;20040;-83
2023/08/13 10:53:12;;;;;;;7.03;1.90;;;21.70;99.90;;;;;;5033232;28;20060;-83
2023/08/13 10:55:47;;;;;;;5.10;1.95;;;21.70;99.90;;;;;;5041798;28;20057;-82
2023/08/13 10:58:36;;;;;;;5.82;2.10;;;21.90;99.90;;;;;;5027928;28;20103;-83
2023/08/13 11:01:19;;;;;;;5.35;1.85;;;22.20;99.90;;;;;;5028180;28;20123;-83
2023/08/13 11:03:51;;;;;;;4.78;1.88;;;22.30;99.90;;;;;;5024528;28;20043;-83
2023/08/13 11:06:19;;;;;;;5.45;1.92;;;22.30;99.90;;;;;;5045533;28;20039;-82
2023/08/13 11:08:48;;;;;;;4.63;1.63;;;22.20;99.90;;;;;;5027708;28;20041;-83
2023/08/13 11:11:18;;;;;;;3.08;1.50;;;22.10;99.90;;;;;;5050373;28;20033;-84
2023/08/13 11:13:45;;;;;;;5.55;1.77;;;22.10;99.90;;;;;;5025371;28;20447;-82
2023/08/13 11:16:11;;;;;;;3.35;1.45;;;22.10;99.90;;;;;;5037022;28;20051;-82
2023/08/13 11:18:37;;;;;;;5.40;2.03;;;22.00;99.90;;;;;;5052812;28;20036;-82
2023/08/13 11:21:04;;;;;;;5.40;1.40;;;21.90;99.90;;;;;;5054446;28;20038;-82
2023/08/13 11:23:31;;;;;;;3.78;1.58;;;21.80;99.90;;;;;;5053445;28;20091;-82
2023/08/13 11:25:57;;;;;;;4.88;1.75;;;21.70;99.90;;;;;;5053363;28;20043;-82
2023/08/13 11:28:27;;;;;;;2.15;1.40;;;21.70;99.90;;;;;;5052872;28;20159;-82
2023/08/13 11:30:56;;;;;;;3.38;1.50;;;21.70;99.90;;;;;;5052215;28;20041;-81
2023/08/13 11:33:22;;;;;;;2.63;1.42;;;21.70;99.90;;;;;;5036728;28;20045;-82
2023/08/13 11:35:49;;;;;;;2.78;1.33;;;21.70;99.90;;;;;;5036149;28;20043;-82
2023/08/13 11:38:15;;;;;;;3.88;1.58;;;21.70;99.90;;;;;;5036087;28;20041;-82
2023/08/13 11:40:41;;;;;;;5.13;1.98;;;21.70;99.90;;;;;;5053295;28;20772;-83
2023/08/13 11:43:10;;;;;;;4.88;1.60;;;21.60;99.90;;;;;;5059258;28;20112;-84
2023/08/13 11:45:37;;;;;;;3.78;1.55;;;21.70;99.90;;;;;;5044392;28;20037;-81
2023/08/13 11:48:11;;;;;;;3.72;1.55;;;21.60;99.90;;;;;;5019967;28;20114;-83
2023/08/13 11:50:38;;;;;;;3.78;1.40;;;21.70;99.90;;;;;;5035697;28;20511;-83
2023/08/13 11:53:12;;;;;;;3.65;1.48;;;21.60;99.90;;;;;;5023834;28;20048;-82
2023/08/13 11:55:48;;;;;;;4.28;1.65;;;21.60;99.90;;;;;;5052511;28;20060;-83
2023/08/13 11:58:18;;;;;;;3.50;1.55;;;21.60;99.90;;;;;;5035752;28;20066;-82
2023/08/13 12:00:48;;;;;;;6.10;1.88;;;21.60;99.90;;;;;;5035649;28;20093;-83
2023/08/13 12:03:14;;;;;;;3.95;1.55;;;21.60;99.90;;;;;;5023677;28;20106;-82
2023/08/13 12:05:41;;;;;;;3.25;1.45;;;21.70;99.90;;;;;;5019651;28;20498;-82
2023/08/13 12:08:09;;;;;;;6.45;1.98;;;21.80;99.90;;;;;;5035226;28;20041;-82
2023/08/13 12:10:36;;;;;;;4.32;1.63;;;22.00;99.90;;;;;;5051832;28;20550;-83
2023/08/13 12:13:02;;;;;;;4.55;1.73;;;22.00;99.90;;;;;;5035238;28;20048;-83
2023/08/13 12:15:29;;;;;;;5.00;1.80;;;22.00;99.90;;;;;;5006123;28;20648;-82
2023/08/13 12:17:56;;;;;;;4.43;1.45;;;22.00;99.90;;;;;;5019761;28;20123;-82
2023/08/13 12:20:23;;;;;;;3.10;1.80;;;21.90;99.90;;;;;;5041569;28;20056;-82
2023/08/13 12:22:53;;;;;;;5.32;2.08;;;21.80;99.90;;;;;;5053105;28;20044;-82
2023/08/13 12:25:18;;;;;;;4.38;1.77;;;21.70;99.90;;;;;;5024496;28;20048;-81
2023/08/13 12:27:47;;;;;;;4.43;1.95;;;21.60;99.90;;;;;;5018235;28;20041;-81
2023/08/13 12:30:13;;;;;;;3.20;1.58;;;21.40;99.90;;;;;;5051417;28;20124;-82
2023/08/13 12:32:39;;;;;;;6.00;1.90;;;21.30;99.90;;;;;;5031068;28;20521;-83
2023/08/13 12:35:08;;;;;;;4.00;2.08;;;21.20;99.90;;;;;;5045523;28;20040;-83
2023/08/13 12:37:34;;;;;;;5.47;1.90;;;21.10;99.90;;;;;;5051569;28;20127;-82
2023/08/13 12:39:59;;;;;;;3.90;1.80;;;21.00;99.90;;;;;;5034017;28;20183;-83